Terminal Aerodrome Forecast
Issued by NWS

Home | Current Version | Previous Version | Graphics & Text | Print | Product List | Glossary On
Versions: 1 2 3 4 5 6 7 8 9 10 11 12 13 14 15 16 17 18 19 20 21 22 23
000
FTUS43 KGRB 291736
TAFATW
TAF
KATW 291736Z 2918/3018 26016G25KT P6SM VCSH BKN012 BKN050
      TEMPO 2918/2922 SCT012 BKN050
     FM292200 27012G20KT P6SM BKN050
     FM300100 26006KT P6SM SCT040
     FM301500 28007KT P6SM SCT035=

USA.gov is the U.S. government's official web portal to all federal, state and local government web resources and services.